createdAt,value
2022-11-08T00:00:10.378Z,7.00
2022-11-08T00:02:39.341Z,7.00
2022-11-08T00:05:26.400Z,7.00
2022-11-08T00:08:13.069Z,7.00
2022-11-08T00:10:59.466Z,7.10
2022-11-08T00:13:45.960Z,7.00
2022-11-08T00:16:13.877Z,6.90
2022-11-08T00:18:41.749Z,6.70
2022-11-08T00:21:09.602Z,6.70
2022-11-08T00:23:37.438Z,6.70
2022-11-08T00:26:05.390Z,6.80
2022-11-08T00:28:33.397Z,6.80
2022-11-08T00:31:07.131Z,6.70
2022-11-08T00:33:35.267Z,6.70
2022-11-08T00:36:04.012Z,6.60
2022-11-08T00:38:31.930Z,6.60
2022-11-08T00:40:59.759Z,6.60
2022-11-08T00:43:27.665Z,6.60
2022-11-08T00:45:55.499Z,6.60
2022-11-08T00:48:26.489Z,6.60
2022-11-08T00:50:54.541Z,6.60
2022-11-08T00:53:22.401Z,6.60
2022-11-08T00:55:50.318Z,6.50
2022-11-08T00:58:19.459Z,6.40
2022-11-08T01:00:50.132Z,6.50
2022-11-08T01:03:21.010Z,6.50
2022-11-08T01:05:50.397Z,6.50
2022-11-08T01:11:04.963Z,6.20
2022-11-08T01:13:33.140Z,6.20
2022-11-08T01:16:08.451Z,6.30
2022-11-08T01:18:36.434Z,6.30
2022-11-08T01:21:06.159Z,6.40
2022-11-08T01:23:34.698Z,6.40
2022-11-08T01:26:08.269Z,6.40
2022-11-08T01:28:37.266Z,6.30
2022-11-08T01:31:25.971Z,6.30
2022-11-08T01:33:54.471Z,6.20
2022-11-08T01:36:25.278Z,6.10
2022-11-08T01:38:53.589Z,6.10
2022-11-08T01:41:23.808Z,6.10
2022-11-08T01:44:00.029Z,6.20
2022-11-08T01:46:42.765Z,6.20
2022-11-08T01:49:20.117Z,6.20
2022-11-08T01:51:54.411Z,6.20
2022-11-08T01:54:42.440Z,6.10
2022-11-08T01:57:14.609Z,6.00
2022-11-08T01:59:46.015Z,6.00
2022-11-08T02:02:14.485Z,6.00
2022-11-08T02:04:48.338Z,6.00
2022-11-08T02:07:20.083Z,6.00
2022-11-08T02:09:49.634Z,6.00
2022-11-08T02:12:21.496Z,5.90
2022-11-08T02:14:49.480Z,5.90
2022-11-08T02:17:17.514Z,5.90
2022-11-08T02:19:48.208Z,5.90
2022-11-08T02:22:40.232Z,5.90
2022-11-08T02:25:08.458Z,5.80
2022-11-08T02:27:36.370Z,5.80
2022-11-08T02:30:04.779Z,5.70
2022-11-08T02:32:43.274Z,5.50
2022-11-08T02:35:16.411Z,5.50
2022-11-08T02:37:45.101Z,5.50
2022-11-08T02:40:13.070Z,5.50
2022-11-08T02:42:44.010Z,5.50
2022-11-08T02:47:52.999Z,5.40
2022-11-08T02:50:20.893Z,5.40
2022-11-08T02:52:48.790Z,5.50
2022-11-08T02:55:16.693Z,5.50
2022-11-08T02:57:44.582Z,5.60
2022-11-08T03:00:13.221Z,5.50
2022-11-08T03:02:41.132Z,5.50
2022-11-08T03:05:09.427Z,5.40
2022-11-08T03:07:37.352Z,5.50
2022-11-08T03:10:05.548Z,5.50
2022-11-08T03:12:33.454Z,5.50
2022-11-08T03:15:01.299Z,5.40
2022-11-08T03:17:29.267Z,5.40
2022-11-08T03:19:57.338Z,5.40
2022-11-08T03:22:25.562Z,5.30
2022-11-08T03:24:53.407Z,5.30
2022-11-08T03:27:22.429Z,5.30
2022-11-08T03:29:51.119Z,5.20
2022-11-08T03:32:19.001Z,5.30
2022-11-08T03:34:46.993Z,5.20
2022-11-08T03:37:14.870Z,5.30
2022-11-08T03:39:42.750Z,5.30
2022-11-08T03:42:10.639Z,5.30
2022-11-08T03:44:38.475Z,5.30
2022-11-08T03:47:06.420Z,5.20
2022-11-08T03:49:34.263Z,5.20
2022-11-08T03:52:02.447Z,5.20
2022-11-08T03:54:30.306Z,5.10
2022-11-08T03:56:58.269Z,5.00
2022-11-08T03:59:26.148Z,5.00
2022-11-08T04:01:54.241Z,5.00
2022-11-08T04:04:22.295Z,5.00
2022-11-08T04:06:50.333Z,5.00
2022-11-08T04:09:21.472Z,5.00
2022-11-08T04:12:08.386Z,4.90
2022-11-08T04:14:54.781Z,4.90
2022-11-08T04:17:42.833Z,4.90
2022-11-08T04:20:29.771Z,4.90
2022-11-08T04:22:58.637Z,5.00
2022-11-08T04:25:28.990Z,4.90
2022-11-08T04:28:00.468Z,4.80
2022-11-08T04:30:28.353Z,4.80
2022-11-08T04:33:06.145Z,4.80
2022-11-08T04:35:35.382Z,4.90
2022-11-08T04:38:03.683Z,4.90
2022-11-08T04:40:32.746Z,5.00
2022-11-08T04:43:00.597Z,5.00
2022-11-08T04:45:28.485Z,5.00
2022-11-08T04:47:56.315Z,4.90
2022-11-08T04:50:24.201Z,4.90
2022-11-08T04:52:53.824Z,5.00
2022-11-08T04:55:22.854Z,4.90
2022-11-08T04:57:51.297Z,4.90
2022-11-08T05:00:19.570Z,4.80
2022-11-08T05:02:47.478Z,4.70
2022-11-08T05:05:15.352Z,4.60
2022-11-08T05:07:43.224Z,4.70
2022-11-08T05:10:11.330Z,4.70
2022-11-08T05:12:39.218Z,4.70
2022-11-08T05:15:07.774Z,4.70
2022-11-08T05:17:35.616Z,4.80
2022-11-08T05:20:23.058Z,4.70
2022-11-08T05:23:09.418Z,4.50
2022-11-08T05:25:41.286Z,4.50
2022-11-08T05:28:12.257Z,4.50
2022-11-08T05:30:40.133Z,4.50
2022-11-08T05:33:08.128Z,4.50
2022-11-08T05:35:36.750Z,4.40
2022-11-08T05:38:04.643Z,4.50
2022-11-08T05:40:33.719Z,4.40
2022-11-08T05:43:01.680Z,4.50
2022-11-08T05:45:29.608Z,4.50
2022-11-08T05:47:58.833Z,4.60
2022-11-08T05:50:26.805Z,4.60
2022-11-08T05:52:56.050Z,4.60
2022-11-08T05:55:23.943Z,4.60
2022-11-08T05:57:52.157Z,4.60
2022-11-08T06:00:21.038Z,4.60
2022-11-08T06:02:48.960Z,4.50
2022-11-08T06:05:16.949Z,4.50
2022-11-08T06:07:44.882Z,4.50
2022-11-08T06:10:12.903Z,4.50
2022-11-08T06:12:40.944Z,4.50
2022-11-08T06:15:09.671Z,4.40
2022-11-08T06:17:37.596Z,4.40
2022-11-08T06:20:08.449Z,4.50
2022-11-08T06:22:36.806Z,4.50
2022-11-08T06:25:05.108Z,4.40
2022-11-08T06:27:33.174Z,4.40
2022-11-08T06:30:01.042Z,4.50
2022-11-08T06:32:28.954Z,4.50
2022-11-08T06:34:56.830Z,4.50
2022-11-08T06:37:24.786Z,4.50
2022-11-08T06:39:52.628Z,4.60
2022-11-08T06:42:22.041Z,4.70
2022-11-08T06:44:49.906Z,4.80
2022-11-08T06:47:17.806Z,4.90
2022-11-08T06:49:45.801Z,4.80
2022-11-08T06:52:13.778Z,5.00
2022-11-08T06:54:42.046Z,5.30
2022-11-08T06:57:09.979Z,5.80
2022-11-08T06:59:37.926Z,6.40
2022-11-08T07:02:05.898Z,7.00
2022-11-08T07:04:33.968Z,7.40
2022-11-08T07:07:02.071Z,7.70
2022-11-08T07:09:30.984Z,8.00
2022-11-08T07:11:58.966Z,8.00
2022-11-08T07:14:32.853Z,7.90
2022-11-08T07:17:00.763Z,7.80
2022-11-08T07:19:28.690Z,7.90
2022-11-08T07:21:56.714Z,7.80
2022-11-08T07:24:24.557Z,7.60
2022-11-08T07:26:52.848Z,7.80
2022-11-08T07:29:20.738Z,8.10
2022-11-08T07:31:48.654Z,8.80
2022-11-08T07:34:20.048Z,9.60
2022-11-08T07:36:48.632Z,10.50
2022-11-08T07:39:16.567Z,11.00
2022-11-08T07:41:44.480Z,11.50
2022-11-08T07:44:12.349Z,11.80
2022-11-08T07:46:40.227Z,12.00
2022-11-08T07:49:08.137Z,12.20
2022-11-08T07:51:36.175Z,12.50
2022-11-08T07:54:04.061Z,12.70
2022-11-08T07:56:32.120Z,12.40
2022-11-08T07:59:00.080Z,11.80
2022-11-08T08:01:28.021Z,11.40
2022-11-08T08:03:55.919Z,11.10
2022-11-08T08:06:25.446Z,10.90
2022-11-08T08:08:53.348Z,10.60
2022-11-08T08:11:21.254Z,10.50
2022-11-08T08:13:49.196Z,10.40
2022-11-08T08:16:17.088Z,10.40
2022-11-08T08:18:45.055Z,10.30
2022-11-08T08:21:13.544Z,10.30
2022-11-08T08:23:42.157Z,10.50
2022-11-08T08:26:11.623Z,10.70
2022-11-08T08:28:41.121Z,10.80
2022-11-08T08:31:10.119Z,10.80
2022-11-08T08:33:38.725Z,10.80
2022-11-08T08:36:07.049Z,10.70
2022-11-08T08:38:41.490Z,10.80
2022-11-08T08:41:12.151Z,10.80
2022-11-08T08:43:40.074Z,10.80
2022-11-08T08:46:08.433Z,10.90
2022-11-08T08:48:36.983Z,11.00
2022-11-08T08:51:04.953Z,11.00
2022-11-08T08:53:32.870Z,11.10
2022-11-08T08:56:00.808Z,11.10
2022-11-08T08:58:28.764Z,11.10
2022-11-08T09:03:50.368Z,11.10
2022-11-08T09:06:18.248Z,11.20
2022-11-08T09:08:46.127Z,11.20
2022-11-08T09:11:14.002Z,11.30
2022-11-08T09:13:41.873Z,11.30
2022-11-08T09:16:11.266Z,11.30
2022-11-08T09:18:39.475Z,11.30
2022-11-08T09:21:07.532Z,11.40
2022-11-08T09:23:35.473Z,11.60
2022-11-08T09:26:05.914Z,11.80
2022-11-08T09:28:38.060Z,11.80
2022-11-08T09:31:10.700Z,11.70
2022-11-08T09:33:40.262Z,11.70
2022-11-08T09:36:10.207Z,11.70
2022-11-08T09:38:38.090Z,11.70
2022-11-08T09:41:21.028Z,11.70
2022-11-08T09:44:21.122Z,11.70
2022-11-08T09:46:58.438Z,11.80
2022-11-08T09:49:38.889Z,11.90
2022-11-08T09:52:07.974Z,11.90
2022-11-08T09:54:44.111Z,12.00
2022-11-08T09:57:25.524Z,12.10
2022-11-08T10:00:08.798Z,12.10
2022-11-08T10:02:38.078Z,12.30
2022-11-08T10:05:10.617Z,12.40
2022-11-08T10:07:50.674Z,12.50
2022-11-08T10:10:56.282Z,12.50
2022-11-08T10:13:39.249Z,12.50
2022-11-08T10:16:49.538Z,12.50
2022-11-08T10:19:40.335Z,12.50
2022-11-08T10:22:47.399Z,12.60
2022-11-08T10:25:39.802Z,12.70
2022-11-08T10:28:08.988Z,12.80
2022-11-08T10:30:42.121Z,13.00
2022-11-08T10:33:30.500Z,13.20
2022-11-08T10:36:02.930Z,13.20
2022-11-08T10:38:47.689Z,13.30
2022-11-08T10:41:30.695Z,13.30
2022-11-08T10:44:21.962Z,13.40
2022-11-08T10:46:59.101Z,13.50
2022-11-08T10:49:34.396Z,13.50
2022-11-08T10:52:17.501Z,13.50
2022-11-08T10:54:51.841Z,13.60
2022-11-08T10:57:25.945Z,13.60
2022-11-08T10:59:54.869Z,13.60
2022-11-08T11:02:40.947Z,13.70
2022-11-08T11:05:19.046Z,13.60
2022-11-08T11:07:51.691Z,13.60
2022-11-08T11:10:50.938Z,13.60
2022-11-08T11:13:24.847Z,13.70
2022-11-08T11:15:56.918Z,13.70
2022-11-08T11:18:36.421Z,13.80
2022-11-08T11:21:07.125Z,13.80
2022-11-08T11:23:53.098Z,13.80
2022-11-08T11:26:33.778Z,13.90
2022-11-08T11:29:07.888Z,14.00
2022-11-08T11:31:48.054Z,14.00
2022-11-08T11:34:18.985Z,14.10
2022-11-08T11:37:03.134Z,14.10
2022-11-08T11:39:43.795Z,14.20
2022-11-08T11:42:45.716Z,14.20
2022-11-08T11:45:24.921Z,14.30
2022-11-08T11:47:58.230Z,14.30
2022-11-08T11:50:38.127Z,14.40
2022-11-08T11:53:13.848Z,14.50
2022-11-08T11:56:09.277Z,14.60
2022-11-08T11:58:37.091Z,14.60
2022-11-08T12:01:19.099Z,14.70
2022-11-08T12:04:02.928Z,14.70
2022-11-08T12:06:50.303Z,14.80
2022-11-08T12:09:42.502Z,14.80
2022-11-08T12:12:17.354Z,14.90
2022-11-08T12:14:58.008Z,15.00
2022-11-08T12:17:50.829Z,14.90
2022-11-08T12:21:02.113Z,14.80
2022-11-08T12:23:45.617Z,14.90
2022-11-08T12:26:32.418Z,15.00
2022-11-08T12:29:36.994Z,15.10
2022-11-08T12:32:28.190Z,15.10
2022-11-08T12:35:08.384Z,15.10
2022-11-08T12:37:51.344Z,15.00
2022-11-08T12:40:46.790Z,15.00
2022-11-08T12:43:46.140Z,15.10
2022-11-08T12:46:19.479Z,15.10
2022-11-08T12:49:11.395Z,15.10
2022-11-08T12:52:06.589Z,15.00
2022-11-08T12:54:42.098Z,14.90
2022-11-08T12:57:13.968Z,14.80
2022-11-08T12:59:47.180Z,14.80
2022-11-08T13:02:23.938Z,14.80
2022-11-08T13:04:54.439Z,14.90
2022-11-08T13:07:48.177Z,14.90
2022-11-08T13:10:48.797Z,14.90
2022-11-08T13:13:28.412Z,14.80
2022-11-08T13:16:18.726Z,14.70
2022-11-08T13:18:53.696Z,14.70
2022-11-08T13:21:31.168Z,14.70
2022-11-08T13:24:38.021Z,14.70
2022-11-08T13:27:23.044Z,14.80
2022-11-08T13:29:52.421Z,14.80
2022-11-08T13:32:41.469Z,14.80
2022-11-08T13:35:34.826Z,14.80
2022-11-08T13:38:27.218Z,14.80
2022-11-08T13:41:10.218Z,14.90
2022-11-08T13:43:38.434Z,14.90
2022-11-08T13:46:23.822Z,14.70
2022-11-08T13:49:07.610Z,14.60
2022-11-08T13:51:42.990Z,14.60
2022-11-08T13:54:22.741Z,14.70
2022-11-08T13:56:52.305Z,14.80
2022-11-08T13:59:32.724Z,15.00
2022-11-08T14:02:23.798Z,15.20
2022-11-08T14:04:52.408Z,15.30
2022-11-08T14:07:42.286Z,15.30
2022-11-08T14:10:21.090Z,15.10
2022-11-08T14:12:53.794Z,15.00
2022-11-08T14:15:30.619Z,14.80
2022-11-08T14:18:06.121Z,14.70
2022-11-08T14:20:43.452Z,14.60
2022-11-08T14:26:45.637Z,15.40
2022-11-08T14:29:18.450Z,16.20
2022-11-08T14:31:47.577Z,16.20
2022-11-08T14:34:33.570Z,15.90
2022-11-08T14:37:03.082Z,15.60
2022-11-08T14:39:34.034Z,15.30
2022-11-08T14:42:04.122Z,15.10
2022-11-08T14:44:32.577Z,14.80
2022-11-08T14:47:00.798Z,14.60
2022-11-08T14:49:38.967Z,14.50
2022-11-08T14:52:19.490Z,14.30
2022-11-08T14:54:49.490Z,14.20
2022-11-08T14:57:34.605Z,14.10
2022-11-08T15:00:06.764Z,14.00
2022-11-08T15:02:37.258Z,14.00
2022-11-08T15:05:11.308Z,13.80
2022-11-08T15:07:39.272Z,13.80
2022-11-08T15:10:10.938Z,13.60
2022-11-08T15:12:43.787Z,13.60
2022-11-08T15:15:26.757Z,13.50
2022-11-08T15:18:14.443Z,13.30
2022-11-08T15:20:58.253Z,13.20
2022-11-08T15:23:48.675Z,13.00
2022-11-08T15:26:35.453Z,12.80
2022-11-08T15:29:22.564Z,12.70
2022-11-08T15:32:01.617Z,12.60
2022-11-08T15:34:39.678Z,12.50
2022-11-08T15:37:28.833Z,12.50
2022-11-08T15:39:57.471Z,12.50
2022-11-08T15:42:25.380Z,12.50
2022-11-08T15:45:01.704Z,12.50
2022-11-08T15:47:42.765Z,12.40
2022-11-08T15:50:25.303Z,12.40
2022-11-08T15:52:58.602Z,12.30
2022-11-08T15:55:51.721Z,12.20
2022-11-08T15:58:29.228Z,12.20
2022-11-08T16:00:58.752Z,12.10
2022-11-08T16:03:27.197Z,11.90
2022-11-08T16:05:55.190Z,11.90
2022-11-08T16:08:23.691Z,11.90
2022-11-08T16:10:58.841Z,11.70
2022-11-08T16:13:30.758Z,11.60
2022-11-08T16:16:02.673Z,11.60
2022-11-08T16:18:35.158Z,11.60
2022-11-08T16:21:03.942Z,11.60
2022-11-08T16:23:33.775Z,11.50
2022-11-08T16:26:02.097Z,11.40
2022-11-08T16:28:39.178Z,11.30
2022-11-08T16:31:11.979Z,11.10
2022-11-08T16:33:39.829Z,11.00
2022-11-08T16:36:30.761Z,11.10
2022-11-08T16:39:00.393Z,11.10
2022-11-08T16:41:28.364Z,11.10
2022-11-08T16:43:57.497Z,11.10
2022-11-08T16:46:25.864Z,11.10
2022-11-08T16:48:58.063Z,11.10
2022-11-08T16:51:26.523Z,11.10
2022-11-08T16:53:55.133Z,11.00
2022-11-08T16:56:23.617Z,11.00
2022-11-08T16:58:51.640Z,11.00
2022-11-08T17:01:33.462Z,11.00
2022-11-08T17:04:01.805Z,10.90
2022-11-08T17:06:30.210Z,10.80
2022-11-08T17:08:59.101Z,10.70
2022-11-08T17:11:27.195Z,10.70
2022-11-08T17:13:56.266Z,10.80
2022-11-08T17:16:24.273Z,10.80
2022-11-08T17:18:55.350Z,10.90
2022-11-08T17:21:44.350Z,10.80
2022-11-08T17:24:15.744Z,10.80
2022-11-08T17:26:48.218Z,10.90
2022-11-08T17:29:16.185Z,10.90
2022-11-08T17:31:44.180Z,10.80
2022-11-08T17:34:12.140Z,10.70
2022-11-08T17:36:41.130Z,10.60
2022-11-08T17:39:15.137Z,10.50
2022-11-08T17:41:43.652Z,10.40
2022-11-08T17:44:12.098Z,10.30
2022-11-08T17:46:40.056Z,10.30
2022-11-08T17:49:09.175Z,10.30
2022-11-08T17:51:37.910Z,10.30
2022-11-08T17:54:05.880Z,10.30
2022-11-08T17:56:34.074Z,10.30
2022-11-08T17:59:04.343Z,10.30
2022-11-08T18:01:33.041Z,10.20
2022-11-08T18:04:02.183Z,10.20
2022-11-08T18:06:30.466Z,10.20
2022-11-08T18:08:59.057Z,10.10
2022-11-08T18:11:27.075Z,10.00
2022-11-08T18:13:55.215Z,10.00
2022-11-08T18:16:25.909Z,10.00
2022-11-08T18:18:54.791Z,10.00
2022-11-08T18:21:23.089Z,9.90
2022-11-08T18:23:51.187Z,9.90
2022-11-08T18:26:19.696Z,9.80
2022-11-08T18:28:47.754Z,9.80
2022-11-08T18:31:19.480Z,9.80
2022-11-08T18:33:48.407Z,9.80
2022-11-08T18:36:19.582Z,9.90
2022-11-08T18:38:48.345Z,10.00
2022-11-08T18:41:19.757Z,10.10
2022-11-08T18:43:47.679Z,10.10
2022-11-08T18:46:18.293Z,10.00
2022-11-08T18:48:47.088Z,10.00
2022-11-08T18:51:17.354Z,10.00
2022-11-08T18:53:45.701Z,9.90
2022-11-08T18:56:14.461Z,9.80
2022-11-08T18:58:43.729Z,9.80
2022-11-08T19:01:11.830Z,9.60
2022-11-08T19:03:40.222Z,9.60
2022-11-08T19:06:09.147Z,9.50
2022-11-08T19:08:37.864Z,9.50
2022-11-08T19:11:09.450Z,9.50
2022-11-08T19:13:39.680Z,9.40
2022-11-08T19:16:07.550Z,9.30
2022-11-08T19:18:36.427Z,9.30
2022-11-08T19:21:09.596Z,9.30
2022-11-08T19:23:40.574Z,9.30
2022-11-08T19:26:16.054Z,9.20
2022-11-08T19:28:46.621Z,9.20
2022-11-08T19:31:16.221Z,9.20
2022-11-08T19:33:44.147Z,9.20
2022-11-08T19:36:18.899Z,9.30
2022-11-08T19:38:47.221Z,9.20
2022-11-08T19:41:20.530Z,9.10
2022-11-08T19:43:49.632Z,8.90
2022-11-08T19:46:20.526Z,9.00
2022-11-08T19:48:50.621Z,9.00
2022-11-08T19:51:24.016Z,9.10
2022-11-08T19:53:56.464Z,9.10
2022-11-08T19:56:43.367Z,9.20
2022-11-08T19:59:13.060Z,9.30
2022-11-08T20:01:41.999Z,9.30
2022-11-08T20:04:12.230Z,9.40
2022-11-08T20:06:40.758Z,9.40
2022-11-08T20:09:10.413Z,9.50
2022-11-08T20:11:41.604Z,9.40
2022-11-08T20:14:11.706Z,9.30
2022-11-08T20:16:42.973Z,9.30
2022-11-08T20:19:14.394Z,9.30
2022-11-08T20:21:43.691Z,9.40
2022-11-08T20:24:12.162Z,9.40
2022-11-08T20:26:42.405Z,9.40
2022-11-08T20:29:10.735Z,9.50
2022-11-08T20:31:39.227Z,9.60
2022-11-08T20:34:10.031Z,9.60
2022-11-08T20:36:38.701Z,9.70
2022-11-08T20:39:08.127Z,9.50
2022-11-08T20:41:38.112Z,9.50
2022-11-08T20:44:07.141Z,9.40
2022-11-08T20:46:36.235Z,9.30
2022-11-08T20:49:05.314Z,9.20
2022-11-08T20:51:34.181Z,9.20
2022-11-08T20:54:04.853Z,9.10
2022-11-08T20:56:32.957Z,9.10
2022-11-08T20:59:00.904Z,9.00
2022-11-08T21:01:30.535Z,9.00
2022-11-08T21:04:01.107Z,9.00
2022-11-08T21:06:32.900Z,9.00
2022-11-08T21:09:16.952Z,9.00
2022-11-08T21:11:51.641Z,8.90
2022-11-08T21:14:19.572Z,8.90
2022-11-08T21:17:15.138Z,8.90
2022-11-08T21:19:35.518Z,8.80
2022-11-08T21:22:18.493Z,8.80
2022-11-08T21:24:51.560Z,8.80
2022-11-08T21:27:19.537Z,8.80
2022-11-08T21:29:50.517Z,8.90
2022-11-08T21:32:21.572Z,8.90
2022-11-08T21:34:49.475Z,8.80
2022-11-08T21:37:17.475Z,8.70
2022-11-08T21:39:45.480Z,8.70
2022-11-08T21:42:13.382Z,8.60
2022-11-08T21:44:41.387Z,8.60
2022-11-08T21:47:09.450Z,8.50
2022-11-08T21:49:37.630Z,8.50
2022-11-08T21:52:05.765Z,8.50
2022-11-08T21:54:33.730Z,8.60
2022-11-08T21:57:01.635Z,8.70
2022-11-08T21:59:29.562Z,8.80
2022-11-08T22:01:57.593Z,9.00
2022-11-08T22:04:25.512Z,9.10
2022-11-08T22:06:53.934Z,9.20
2022-11-08T22:09:21.945Z,9.20
2022-11-08T22:11:49.886Z,9.30
2022-11-08T22:14:17.866Z,9.30
2022-11-08T22:16:45.834Z,9.40
2022-11-08T22:19:14.446Z,9.40
2022-11-08T22:21:44.186Z,9.40
2022-11-08T22:24:21.296Z,9.40
2022-11-08T22:26:50.923Z,9.40
2022-11-08T22:29:19.227Z,9.40
2022-11-08T22:31:47.501Z,9.40
2022-11-08T22:34:15.923Z,9.40
2022-11-08T22:36:45.791Z,9.50
2022-11-08T22:39:19.413Z,9.50
2022-11-08T22:41:50.855Z,9.50
2022-11-08T22:44:19.052Z,9.60
2022-11-08T22:46:48.322Z,9.60
2022-11-08T22:49:16.769Z,9.60
2022-11-08T22:51:45.102Z,9.60
2022-11-08T22:54:16.076Z,9.60
2022-11-08T22:56:44.351Z,9.60
2022-11-08T22:59:15.290Z,9.60
2022-11-08T23:01:46.660Z,9.60
2022-11-08T23:04:14.450Z,9.60
2022-11-08T23:06:42.646Z,9.50
2022-11-08T23:09:11.134Z,9.50
2022-11-08T23:11:57.456Z,9.50
2022-11-08T23:14:43.955Z,9.50
2022-11-08T23:17:11.977Z,9.50
2022-11-08T23:20:01.110Z,9.50
2022-11-08T23:22:47.541Z,9.50
2022-11-08T23:25:15.533Z,9.50
2022-11-08T23:28:02.013Z,9.50
2022-11-08T23:30:48.352Z,9.50
2022-11-08T23:33:16.540Z,9.40
2022-11-08T23:36:04.573Z,9.40
2022-11-08T23:38:32.855Z,9.40
2022-11-08T23:41:19.528Z,9.30
2022-11-08T23:44:05.923Z,9.20
2022-11-08T23:46:34.001Z,9.20
2022-11-08T23:49:03.068Z,9.20
2022-11-08T23:51:32.005Z,9.30
2022-11-08T23:53:59.957Z,9.30
2022-11-08T23:56:28.994Z,9.30
2022-11-08T23:59:00.313Z,9.30
